Terminal Aerodrome Forecast
Issued by NWS

Home | Current Version | Previous Version | Text Only | Print | Product List | Glossary On
Versions: 1 2 3 4 5 6 7 8 9 10 11 12 13 14 15
642
FTUS46 KSEW 270126 AAA
TAFCLM
TAF AMD
KCLM 270126Z 2701/2724 30015G25KT P6SM VCSH SCT035
      TEMPO 2701/2704 BKN035
     FM270400 29012G19KT P6SM OVC035
     FM270800 27013KT P6SM VCSH OVC030
     FM271000 27014KT P6SM VCSH OVC035
     FM271200 29011G18KT P6SM VCSH BKN035
     FM272100 31016G22KT P6SM VCSH BKN035=

USA.gov is the U.S. government's official web portal to all federal, state and local government web resources and services.